sensor_id;sensor_type;location;lat;lon;timestamp;P1;durP1;ratioP1;P2;durP2;ratioP2
52112;SDS011;38109;49.488;31.988;2023-04-24T00:00:55;31.98;;;13.68;;
52112;SDS011;38109;49.488;31.988;2023-04-24T00:03:26;29.55;;;13.40;;
52112;SDS011;38109;49.488;31.988;2023-04-24T00:05:53;25.52;;;12.93;;
52112;SDS011;38109;49.488;31.988;2023-04-24T00:08:21;27.85;;;12.98;;
52112;SDS011;38109;49.488;31.988;2023-04-24T00:10:48;27.55;;;12.50;;
52112;SDS011;38109;49.488;31.988;2023-04-24T00:13:14;30.90;;;13.65;;
52112;SDS011;38109;49.488;31.988;2023-04-24T00:15:40;30.77;;;14.32;;
52112;SDS011;38109;49.488;31.988;2023-04-24T00:18:05;31.85;;;14.38;;
52112;SDS011;38109;49.488;31.988;2023-04-24T00:20:31;28.23;;;13.73;;
52112;SDS011;38109;49.488;31.988;2023-04-24T00:22:58;30.08;;;13.45;;
52112;SDS011;38109;49.488;31.988;2023-04-24T00:25:24;29.83;;;13.98;;
52112;SDS011;38109;49.488;31.988;2023-04-24T00:27:49;32.20;;;14.02;;
52112;SDS011;38109;49.488;31.988;2023-04-24T00:30:15;29.45;;;13.45;;
52112;SDS011;38109;49.488;31.988;2023-04-24T00:32:41;30.98;;;15.30;;
52112;SDS011;38109;49.488;31.988;2023-04-24T00:35:06;30.15;;;13.93;;
52112;SDS011;38109;49.488;31.988;2023-04-24T00:37:34;24.38;;;12.25;;
52112;SDS011;38109;49.488;31.988;2023-04-24T00:39:59;23.10;;;12.10;;
52112;SDS011;38109;49.488;31.988;2023-04-24T00:42:25;24.30;;;11.65;;
52112;SDS011;38109;49.488;31.988;2023-04-24T00:44:51;27.55;;;11.90;;
52112;SDS011;38109;49.488;31.988;2023-04-24T00:47:16;23.70;;;11.55;;
52112;SDS011;38109;49.488;31.988;2023-04-24T00:49:44;25.35;;;12.70;;
52112;SDS011;38109;49.488;31.988;2023-04-24T00:52:10;24.93;;;12.47;;
52112;SDS011;38109;49.488;31.988;2023-04-24T00:54:35;24.63;;;13.43;;
52112;SDS011;38109;49.488;31.988;2023-04-24T00:57:02;24.27;;;12.20;;
52112;SDS011;38109;49.488;31.988;2023-04-24T00:59:28;23.63;;;12.55;;
52112;SDS011;38109;49.488;31.988;2023-04-24T01:01:55;24.40;;;12.88;;
52112;SDS011;38109;49.488;31.988;2023-04-24T01:04:21;24.25;;;11.95;;
52112;SDS011;38109;49.488;31.988;2023-04-24T01:06:47;27.42;;;13.57;;
52112;SDS011;38109;49.488;31.988;2023-04-24T01:09:15;19.90;;;11.13;;
52112;SDS011;38109;49.488;31.988;2023-04-24T01:11:41;23.63;;;12.30;;
52112;SDS011;38109;49.488;31.988;2023-04-24T01:14:08;22.92;;;11.95;;
52112;SDS011;38109;49.488;31.988;2023-04-24T01:16:33;21.52;;;10.88;;
52112;SDS011;38109;49.488;31.988;2023-04-24T01:18:59;18.85;;;10.30;;
52112;SDS011;38109;49.488;31.988;2023-04-24T01:21:26;16.02;;;9.38;;
52112;SDS011;38109;49.488;31.988;2023-04-24T01:23:54;20.83;;;10.25;;
52112;SDS011;38109;49.488;31.988;2023-04-24T01:26:21;16.65;;;9.57;;
52112;SDS011;38109;49.488;31.988;2023-04-24T01:28:48;22.98;;;11.07;;
52112;SDS011;38109;49.488;31.988;2023-04-24T01:31:14;22.95;;;11.30;;
52112;SDS011;38109;49.488;31.988;2023-04-24T01:33:41;23.13;;;11.35;;
52112;SDS011;38109;49.488;31.988;2023-04-24T01:36:08;21.67;;;11.18;;
52112;SDS011;38109;49.488;31.988;2023-04-24T01:38:35;20.98;;;11.15;;
52112;SDS011;38109;49.488;31.988;2023-04-24T01:41:01;20.77;;;11.00;;
52112;SDS011;38109;49.488;31.988;2023-04-24T01:43:27;21.85;;;10.77;;
52112;SDS011;38109;49.488;31.988;2023-04-24T01:45:53;18.92;;;10.23;;
52112;SDS011;38109;49.488;31.988;2023-04-24T01:48:19;21.52;;;10.05;;
52112;SDS011;38109;49.488;31.988;2023-04-24T01:50:45;24.48;;;11.05;;
52112;SDS011;38109;49.488;31.988;2023-04-24T01:53:11;19.35;;;10.32;;
52112;SDS011;38109;49.488;31.988;2023-04-24T01:55:37;18.33;;;9.02;;
52112;SDS011;38109;49.488;31.988;2023-04-24T01:58:03;20.67;;;8.90;;
52112;SDS011;38109;49.488;31.988;2023-04-24T02:00:28;17.30;;;9.23;;
52112;SDS011;38109;49.488;31.988;2023-04-24T02:02:54;15.63;;;8.55;;
52112;SDS011;38109;49.488;31.988;2023-04-24T02:05:20;11.40;;;6.85;;
52112;SDS011;38109;49.488;31.988;2023-04-24T02:07:46;48.28;;;19.63;;
52112;SDS011;38109;49.488;31.988;2023-04-24T02:10:11;34.08;;;15.65;;
52112;SDS011;38109;49.488;31.988;2023-04-24T02:12:37;24.17;;;11.63;;
52112;SDS011;38109;49.488;31.988;2023-04-24T02:15:03;29.33;;;12.95;;
52112;SDS011;38109;49.488;31.988;2023-04-24T02:17:29;18.05;;;9.93;;
52112;SDS011;38109;49.488;31.988;2023-04-24T02:19:55;19.80;;;9.55;;
52112;SDS011;38109;49.488;31.988;2023-04-24T02:22:21;39.10;;;16.75;;
52112;SDS011;38109;49.488;31.988;2023-04-24T02:24:47;34.63;;;15.98;;
52112;SDS011;38109;49.488;31.988;2023-04-24T02:27:12;49.13;;;19.95;;
52112;SDS011;38109;49.488;31.988;2023-04-24T02:29:38;81.72;;;32.88;;
52112;SDS011;38109;49.488;31.988;2023-04-24T02:32:04;69.78;;;29.60;;
52112;SDS011;38109;49.488;31.988;2023-04-24T02:34:29;69.75;;;29.45;;
52112;SDS011;38109;49.488;31.988;2023-04-24T02:36:55;67.72;;;28.85;;
52112;SDS011;38109;49.488;31.988;2023-04-24T02:39:21;41.17;;;18.65;;
52112;SDS011;38109;49.488;31.988;2023-04-24T02:41:46;35.92;;;17.35;;
52112;SDS011;38109;49.488;31.988;2023-04-24T02:44:12;41.67;;;18.58;;
52112;SDS011;38109;49.488;31.988;2023-04-24T02:46:38;33.75;;;15.70;;
52112;SDS011;38109;49.488;31.988;2023-04-24T02:49:03;34.40;;;17.10;;
52112;SDS011;38109;49.488;31.988;2023-04-24T02:51:29;31.02;;;16.75;;
52112;SDS011;38109;49.488;31.988;2023-04-24T02:53:55;40.13;;;19.25;;
52112;SDS011;38109;49.488;31.988;2023-04-24T02:56:21;37.45;;;18.20;;
52112;SDS011;38109;49.488;31.988;2023-04-24T02:58:47;29.70;;;14.55;;
52112;SDS011;38109;49.488;31.988;2023-04-24T03:01:12;22.67;;;10.60;;
52112;SDS011;38109;49.488;31.988;2023-04-24T03:03:38;19.65;;;9.32;;
52112;SDS011;38109;49.488;31.988;2023-04-24T03:06:04;20.10;;;10.10;;
52112;SDS011;38109;49.488;31.988;2023-04-24T03:08:31;14.35;;;7.75;;
52112;SDS011;38109;49.488;31.988;2023-04-24T03:10:57;23.98;;;9.93;;
52112;SDS011;38109;49.488;31.988;2023-04-24T03:13:22;41.47;;;15.32;;
52112;SDS011;38109;49.488;31.988;2023-04-24T03:15:48;26.73;;;10.73;;
52112;SDS011;38109;49.488;31.988;2023-04-24T03:18:14;20.73;;;9.40;;
52112;SDS011;38109;49.488;31.988;2023-04-24T03:20:40;17.63;;;8.98;;
52112;SDS011;38109;49.488;31.988;2023-04-24T03:23:05;18.17;;;8.85;;
52112;SDS011;38109;49.488;31.988;2023-04-24T03:25:31;14.63;;;7.70;;
52112;SDS011;38109;49.488;31.988;2023-04-24T03:27:57;18.02;;;8.15;;
52112;SDS011;38109;49.488;31.988;2023-04-24T03:30:22;29.27;;;13.13;;
52112;SDS011;38109;49.488;31.988;2023-04-24T03:32:48;29.63;;;12.82;;
52112;SDS011;38109;49.488;31.988;2023-04-24T03:35:14;30.02;;;14.18;;
52112;SDS011;38109;49.488;31.988;2023-04-24T03:37:39;31.83;;;14.50;;
52112;SDS011;38109;49.488;31.988;2023-04-24T03:40:07;31.02;;;13.68;;
52112;SDS011;38109;49.488;31.988;2023-04-24T03:42:37;27.40;;;13.27;;
52112;SDS011;38109;49.488;31.988;2023-04-24T03:45:03;24.40;;;10.80;;
52112;SDS011;38109;49.488;31.988;2023-04-24T03:47:29;18.83;;;9.60;;
52112;SDS011;38109;49.488;31.988;2023-04-24T03:49:55;18.80;;;9.48;;
52112;SDS011;38109;49.488;31.988;2023-04-24T03:52:26;15.63;;;8.40;;
52112;SDS011;38109;49.488;31.988;2023-04-24T03:58:07;15.55;;;7.53;;
52112;SDS011;38109;49.488;31.988;2023-04-24T04:00:32;14.45;;;7.32;;
52112;SDS011;38109;49.488;31.988;2023-04-24T04:02:59;29.58;;;13.63;;
52112;SDS011;38109;49.488;31.988;2023-04-24T04:05:25;54.00;;;23.20;;
52112;SDS011;38109;49.488;31.988;2023-04-24T04:07:50;133.38;;;52.92;;
52112;SDS011;38109;49.488;31.988;2023-04-24T04:10:16;88.25;;;39.25;;
52112;SDS011;38109;49.488;31.988;2023-04-24T04:12:42;39.78;;;18.45;;
52112;SDS011;38109;49.488;31.988;2023-04-24T04:15:08;48.25;;;21.50;;
52112;SDS011;38109;49.488;31.988;2023-04-24T04:17:34;23.92;;;13.02;;
52112;SDS011;38109;49.488;31.988;2023-04-24T04:19:59;25.23;;;12.48;;
52112;SDS011;38109;49.488;31.988;2023-04-24T04:22:25;16.63;;;9.50;;
52112;SDS011;38109;49.488;31.988;2023-04-24T04:24:51;17.02;;;9.55;;
52112;SDS011;38109;49.488;31.988;2023-04-24T04:27:17;14.00;;;7.78;;
52112;SDS011;38109;49.488;31.988;2023-04-24T04:29:44;9.15;;;6.35;;
52112;SDS011;38109;49.488;31.988;2023-04-24T04:32:10;9.95;;;6.20;;
52112;SDS011;38109;49.488;31.988;2023-04-24T04:34:35;6.95;;;4.50;;
52112;SDS011;38109;49.488;31.988;2023-04-24T04:37:02;8.20;;;4.25;;
52112;SDS011;38109;49.488;31.988;2023-04-24T04:39:28;6.32;;;4.20;;
52112;SDS011;38109;49.488;31.988;2023-04-24T04:41:55;6.70;;;4.13;;
52112;SDS011;38109;49.488;31.988;2023-04-24T04:47:44;6.53;;;3.88;;
52112;SDS011;38109;49.488;31.988;2023-04-24T04:50:10;7.25;;;4.20;;
52112;SDS011;38109;49.488;31.988;2023-04-24T04:52:36;5.43;;;3.67;;
52112;SDS011;38109;49.488;31.988;2023-04-24T04:55:01;5.25;;;3.50;;
52112;SDS011;38109;49.488;31.988;2023-04-24T04:57:27;5.50;;;3.55;;
52112;SDS011;38109;49.488;31.988;2023-04-24T04:59:53;6.32;;;4.10;;
52112;SDS011;38109;49.488;31.988;2023-04-24T05:02:19;10.30;;;5.55;;
52112;SDS011;38109;49.488;31.988;2023-04-24T05:04:45;15.60;;;7.93;;
52112;SDS011;38109;49.488;31.988;2023-04-24T05:07:26;16.95;;;8.55;;
52112;SDS011;38109;49.488;31.988;2023-04-24T05:13:14;15.90;;;8.00;;
52112;SDS011;38109;49.488;31.988;2023-04-24T05:15:40;17.55;;;8.77;;
52112;SDS011;38109;49.488;31.988;2023-04-24T05:18:05;17.83;;;7.75;;
52112;SDS011;38109;49.488;31.988;2023-04-24T05:20:31;14.18;;;7.70;;
52112;SDS011;38109;49.488;31.988;2023-04-24T05:22:57;11.38;;;6.65;;
52112;SDS011;38109;49.488;31.988;2023-04-24T05:25:23;10.00;;;6.28;;
52112;SDS011;38109;49.488;31.988;2023-04-24T05:27:48;11.80;;;6.18;;
52112;SDS011;38109;49.488;31.988;2023-04-24T05:40:43;8.20;;;4.85;;
52112;SDS011;38109;49.488;31.988;2023-04-24T05:46:30;12.52;;;5.22;;
52112;SDS011;38109;49.488;31.988;2023-04-24T05:48:56;8.68;;;5.22;;
52112;SDS011;38109;49.488;31.988;2023-04-24T05:51:22;6.28;;;4.20;;
52112;SDS011;38109;49.488;31.988;2023-04-24T05:53:48;7.82;;;4.30;;
52112;SDS011;38109;49.488;31.988;2023-04-24T05:56:14;5.75;;;4.15;;
52112;SDS011;38109;49.488;31.988;2023-04-24T05:58:40;5.78;;;3.80;;
52112;SDS011;38109;49.488;31.988;2023-04-24T06:01:06;4.57;;;3.22;;
52112;SDS011;38109;49.488;31.988;2023-04-24T06:03:32;3.90;;;2.78;;
52112;SDS011;38109;49.488;31.988;2023-04-24T06:05:57;5.65;;;3.65;;
52112;SDS011;38109;49.488;31.988;2023-04-24T06:08:23;5.30;;;3.38;;
52112;SDS011;38109;49.488;31.988;2023-04-24T06:10:49;4.82;;;3.85;;
52112;SDS011;38109;49.488;31.988;2023-04-24T06:13:14;7.70;;;3.90;;
52112;SDS011;38109;49.488;31.988;2023-04-24T06:15:40;6.00;;;4.15;;
52112;SDS011;38109;49.488;31.988;2023-04-24T06:18:06;6.53;;;3.88;;
52112;SDS011;38109;49.488;31.988;2023-04-24T06:20:32;5.78;;;3.80;;
52112;SDS011;38109;49.488;31.988;2023-04-24T06:22:58;5.32;;;3.47;;
52112;SDS011;38109;49.488;31.988;2023-04-24T06:25:27;5.40;;;3.75;;
52112;SDS011;38109;49.488;31.988;2023-04-24T06:27:53;5.15;;;3.42;;
52112;SDS011;38109;49.488;31.988;2023-04-24T06:30:20;5.95;;;3.78;;
52112;SDS011;38109;49.488;31.988;2023-04-24T06:36:08;7.90;;;3.53;;
52112;SDS011;38109;49.488;31.988;2023-04-24T06:38:34;5.05;;;3.50;;
52112;SDS011;38109;49.488;31.988;2023-04-24T06:41:00;4.60;;;3.22;;
52112;SDS011;38109;49.488;31.988;2023-04-24T06:43:25;4.78;;;3.15;;
52112;SDS011;38109;49.488;31.988;2023-04-24T06:45:51;5.72;;;3.25;;
52112;SDS011;38109;49.488;31.988;2023-04-24T06:48:17;3.47;;;2.65;;
52112;SDS011;38109;49.488;31.988;2023-04-24T06:50:42;4.70;;;3.20;;
52112;SDS011;38109;49.488;31.988;2023-04-24T06:53:08;3.47;;;2.88;;
52112;SDS011;38109;49.488;31.988;2023-04-24T06:55:36;3.72;;;2.70;;
52112;SDS011;38109;49.488;31.988;2023-04-24T06:58:01;4.28;;;3.00;;
52112;SDS011;38109;49.488;31.988;2023-04-24T07:00:27;3.17;;;2.63;;
52112;SDS011;38109;49.488;31.988;2023-04-24T07:02:54;5.50;;;3.15;;
52112;SDS011;38109;49.488;31.988;2023-04-24T07:05:20;5.22;;;2.90;;
52112;SDS011;38109;49.488;31.988;2023-04-24T07:07:46;3.90;;;2.92;;
52112;SDS011;38109;49.488;31.988;2023-04-24T07:10:12;3.50;;;2.80;;
52112;SDS011;38109;49.488;31.988;2023-04-24T07:12:38;3.85;;;2.85;;
52112;SDS011;38109;49.488;31.988;2023-04-24T07:15:17;4.53;;;2.97;;
52112;SDS011;38109;49.488;31.988;2023-04-24T07:17:43;3.35;;;2.90;;
52112;SDS011;38109;49.488;31.988;2023-04-24T07:20:10;4.65;;;3.10;;
52112;SDS011;38109;49.488;31.988;2023-04-24T07:22:39;4.72;;;3.10;;
52112;SDS011;38109;49.488;31.988;2023-04-24T07:25:06;5.53;;;2.92;;
52112;SDS011;38109;49.488;31.988;2023-04-24T07:27:33;3.92;;;3.00;;
52112;SDS011;38109;49.488;31.988;2023-04-24T07:30:00;4.78;;;3.00;;
52112;SDS011;38109;49.488;31.988;2023-04-24T07:35:49;3.88;;;2.63;;
52112;SDS011;38109;49.488;31.988;2023-04-24T07:38:15;4.13;;;2.92;;
52112;SDS011;38109;49.488;31.988;2023-04-24T07:40:41;3.55;;;3.00;;
52112;SDS011;38109;49.488;31.988;2023-04-24T07:43:06;3.55;;;2.60;;
52112;SDS011;38109;49.488;31.988;2023-04-24T07:45:33;3.88;;;2.75;;
52112;SDS011;38109;49.488;31.988;2023-04-24T07:48:02;3.22;;;2.63;;
52112;SDS011;38109;49.488;31.988;2023-04-24T07:50:28;3.33;;;2.60;;
52112;SDS011;38109;49.488;31.988;2023-04-24T07:52:53;3.13;;;2.78;;
52112;SDS011;38109;49.488;31.988;2023-04-24T07:55:19;3.42;;;2.50;;
52112;SDS011;38109;49.488;31.988;2023-04-24T08:07:34;2.80;;;2.50;;
52112;SDS011;38109;49.488;31.988;2023-04-24T08:10:00;3.83;;;2.78;;
52112;SDS011;38109;49.488;31.988;2023-04-24T08:12:28;3.10;;;2.80;;
52112;SDS011;38109;49.488;31.988;2023-04-24T08:14:54;6.88;;;3.22;;
52112;SDS011;38109;49.488;31.988;2023-04-24T08:17:20;3.88;;;2.60;;
52112;SDS011;38109;49.488;31.988;2023-04-24T08:19:46;3.63;;;2.83;;
52112;SDS011;38109;49.488;31.988;2023-04-24T08:22:16;3.05;;;2.60;;
52112;SDS011;38109;49.488;31.988;2023-04-24T08:24:41;2.63;;;2.42;;
52112;SDS011;38109;49.488;31.988;2023-04-24T08:27:08;3.97;;;2.75;;
52112;SDS011;38109;49.488;31.988;2023-04-24T08:29:34;4.28;;;2.90;;
52112;SDS011;38109;49.488;31.988;2023-04-24T08:32:00;2.90;;;2.50;;
52112;SDS011;38109;49.488;31.988;2023-04-24T08:34:26;2.78;;;2.50;;
52112;SDS011;38109;49.488;31.988;2023-04-24T08:36:52;3.80;;;2.42;;
52112;SDS011;38109;49.488;31.988;2023-04-24T08:39:17;2.92;;;2.60;;
52112;SDS011;38109;49.488;31.988;2023-04-24T08:41:43;3.28;;;2.65;;
52112;SDS011;38109;49.488;31.988;2023-04-24T08:44:10;3.03;;;2.55;;
52112;SDS011;38109;49.488;31.988;2023-04-24T08:46:37;3.33;;;2.70;;
52112;SDS011;38109;49.488;31.988;2023-04-24T08:49:04;4.00;;;2.65;;
52112;SDS011;38109;49.488;31.988;2023-04-24T08:51:31;3.40;;;2.65;;
52112;SDS011;38109;49.488;31.988;2023-04-24T08:53:57;3.08;;;2.78;;
52112;SDS011;38109;49.488;31.988;2023-04-24T08:56:23;2.63;;;2.40;;
52112;SDS011;38109;49.488;31.988;2023-04-24T08:58:53;2.78;;;2.47;;
52112;SDS011;38109;49.488;31.988;2023-04-24T09:01:19;3.50;;;2.70;;
52112;SDS011;38109;49.488;31.988;2023-04-24T09:03:47;2.97;;;2.67;;
52112;SDS011;38109;49.488;31.988;2023-04-24T09:06:14;2.88;;;2.40;;
52112;SDS011;38109;49.488;31.988;2023-04-24T09:08:42;3.00;;;2.45;;
52112;SDS011;38109;49.488;31.988;2023-04-24T09:11:10;3.58;;;2.80;;
52112;SDS011;38109;49.488;31.988;2023-04-24T09:13:37;3.50;;;2.53;;
52112;SDS011;38109;49.488;31.988;2023-04-24T09:16:03;2.85;;;2.40;;
52112;SDS011;38109;49.488;31.988;2023-04-24T09:18:29;3.30;;;2.40;;
52112;SDS011;38109;49.488;31.988;2023-04-24T09:20:58;2.72;;;2.50;;
52112;SDS011;38109;49.488;31.988;2023-04-24T09:26:03;3.20;;;2.40;;
52112;SDS011;38109;49.488;31.988;2023-04-24T09:28:33;2.78;;;2.45;;
52112;SDS011;38109;49.488;31.988;2023-04-24T09:31:04;2.88;;;2.50;;
52112;SDS011;38109;49.488;31.988;2023-04-24T09:33:34;4.43;;;2.63;;
52112;SDS011;38109;49.488;31.988;2023-04-24T09:36:01;3.20;;;2.47;;
52112;SDS011;38109;49.488;31.988;2023-04-24T09:38:37;2.78;;;2.40;;
52112;SDS011;38109;49.488;31.988;2023-04-24T09:41:07;2.97;;;2.63;;
52112;SDS011;38109;49.488;31.988;2023-04-24T09:43:33;3.42;;;2.95;;
52112;SDS011;38109;49.488;31.988;2023-04-24T09:46:03;2.78;;;2.53;;
52112;SDS011;38109;49.488;31.988;2023-04-24T09:48:34;7.53;;;2.95;;
52112;SDS011;38109;49.488;31.988;2023-04-24T09:51:02;3.60;;;2.80;;
52112;SDS011;38109;49.488;31.988;2023-04-24T09:53:30;3.17;;;2.88;;
52112;SDS011;38109;49.488;31.988;2023-04-24T09:55:56;4.63;;;3.35;;
52112;SDS011;38109;49.488;31.988;2023-04-24T09:58:28;3.85;;;2.85;;
52112;SDS011;38109;49.488;31.988;2023-04-24T10:00:55;2.92;;;2.60;;
52112;SDS011;38109;49.488;31.988;2023-04-24T10:03:25;3.05;;;2.72;;
52112;SDS011;38109;49.488;31.988;2023-04-24T10:05:52;3.20;;;2.70;;
52112;SDS011;38109;49.488;31.988;2023-04-24T10:08:18;3.33;;;2.70;;
52112;SDS011;38109;49.488;31.988;2023-04-24T10:10:45;3.65;;;2.45;;
52112;SDS011;38109;49.488;31.988;2023-04-24T10:13:12;3.17;;;2.88;;
52112;SDS011;38109;49.488;31.988;2023-04-24T10:15:40;2.60;;;2.30;;
52112;SDS011;38109;49.488;31.988;2023-04-24T10:18:07;2.88;;;2.65;;
52112;SDS011;38109;49.488;31.988;2023-04-24T10:20:34;4.03;;;2.90;;
52112;SDS011;38109;49.488;31.988;2023-04-24T10:23:02;4.03;;;2.85;;
52112;SDS011;38109;49.488;31.988;2023-04-24T10:25:29;3.05;;;2.72;;
52112;SDS011;38109;49.488;31.988;2023-04-24T10:27:57;2.97;;;2.63;;
52112;SDS011;38109;49.488;31.988;2023-04-24T10:30:25;3.65;;;2.63;;
52112;SDS011;38109;49.488;31.988;2023-04-24T10:32:52;2.78;;;2.50;;
52112;SDS011;38109;49.488;31.988;2023-04-24T10:35:18;2.60;;;2.40;;
52112;SDS011;38109;49.488;31.988;2023-04-24T10:37:52;2.42;;;2.22;;
52112;SDS011;38109;49.488;31.988;2023-04-24T10:40:40;2.63;;;2.42;;
52112;SDS011;38109;49.488;31.988;2023-04-24T10:50:07;3.15;;;2.40;;
52112;SDS011;38109;49.488;31.988;2023-04-24T10:56:05;4.10;;;3.00;;
52112;SDS011;38109;49.488;31.988;2023-04-24T11:02:09;4.47;;;3.40;;
52112;SDS011;38109;49.488;31.988;2023-04-24T11:08:14;4.38;;;3.45;;
52112;SDS011;38109;49.488;31.988;2023-04-24T11:14:08;3.90;;;2.95;;
52112;SDS011;38109;49.488;31.988;2023-04-24T11:23:24;3.20;;;2.80;;
52112;SDS011;38109;49.488;31.988;2023-04-24T11:29:14;3.92;;;3.03;;
52112;SDS011;38109;49.488;31.988;2023-04-24T11:35:22;2.90;;;2.38;;
52112;SDS011;38109;49.488;31.988;2023-04-24T11:44:14;2.28;;;2.08;;
52112;SDS011;38109;49.488;31.988;2023-04-24T11:50:06;2.58;;;2.28;;
52112;SDS011;38109;49.488;31.988;2023-04-24T11:52:36;3.10;;;2.30;;
52112;SDS011;38109;49.488;31.988;2023-04-24T11:58:25;2.50;;;2.30;;
52112;SDS011;38109;49.488;31.988;2023-04-24T12:04:15;3.50;;;2.58;;
52112;SDS011;38109;49.488;31.988;2023-04-24T12:10:03;2.67;;;2.47;;
52112;SDS011;38109;49.488;31.988;2023-04-24T12:15:52;3.05;;;2.63;;
52112;SDS011;38109;49.488;31.988;2023-04-24T12:21:40;2.50;;;2.30;;
52112;SDS011;38109;49.488;31.988;2023-04-24T12:24:06;3.17;;;2.63;;
52112;SDS011;38109;49.488;31.988;2023-04-24T12:29:35;3.35;;;2.50;;
52112;SDS011;38109;49.488;31.988;2023-04-24T12:32:03;5.72;;;2.88;;
52112;SDS011;38109;49.488;31.988;2023-04-24T12:34:29;3.05;;;2.75;;
52112;SDS011;38109;49.488;31.988;2023-04-24T12:36:56;3.20;;;2.90;;
52112;SDS011;38109;49.488;31.988;2023-04-24T12:39:35;3.28;;;2.70;;
52112;SDS011;38109;49.488;31.988;2023-04-24T12:42:04;3.88;;;2.63;;
52112;SDS011;38109;49.488;31.988;2023-04-24T12:44:33;3.38;;;2.70;;
52112;SDS011;38109;49.488;31.988;2023-04-24T12:47:11;3.20;;;2.90;;
52112;SDS011;38109;49.488;31.988;2023-04-24T12:49:38;4.45;;;2.67;;
52112;SDS011;38109;49.488;31.988;2023-04-24T12:54:35;2.92;;;2.70;;
52112;SDS011;38109;49.488;31.988;2023-04-24T12:57:15;2.90;;;2.60;;
52112;SDS011;38109;49.488;31.988;2023-04-24T12:59:40;3.63;;;2.90;;
52112;SDS011;38109;49.488;31.988;2023-04-24T13:02:07;4.15;;;2.85;;
52112;SDS011;38109;49.488;31.988;2023-04-24T13:07:22;3.10;;;2.53;;
52112;SDS011;38109;49.488;31.988;2023-04-24T13:09:49;3.10;;;2.63;;
52112;SDS011;38109;49.488;31.988;2023-04-24T13:15:36;3.88;;;2.70;;
52112;SDS011;38109;49.488;31.988;2023-04-24T13:20:53;3.75;;;2.70;;
52112;SDS011;38109;49.488;31.988;2023-04-24T13:26:46;2.90;;;2.60;;
52112;SDS011;38109;49.488;31.988;2023-04-24T13:29:11;3.15;;;2.50;;
52112;SDS011;38109;49.488;31.988;2023-04-24T13:31:37;2.83;;;2.60;;
52112;SDS011;38109;49.488;31.988;2023-04-24T13:34:03;2.78;;;2.58;;
52112;SDS011;38109;49.488;31.988;2023-04-24T13:36:29;2.85;;;2.55;;
52112;SDS011;38109;49.488;31.988;2023-04-24T13:38:58;3.00;;;2.70;;
52112;SDS011;38109;49.488;31.988;2023-04-24T13:41:24;3.10;;;2.80;;
52112;SDS011;38109;49.488;31.988;2023-04-24T13:43:50;4.00;;;2.67;;
52112;SDS011;38109;49.488;31.988;2023-04-24T13:46:15;4.15;;;2.92;;
52112;SDS011;38109;49.488;31.988;2023-04-24T13:48:41;9.07;;;5.03;;
52112;SDS011;38109;49.488;31.988;2023-04-24T13:51:07;5.82;;;3.80;;
52112;SDS011;38109;49.488;31.988;2023-04-24T13:53:33;6.05;;;3.60;;
52112;SDS011;38109;49.488;31.988;2023-04-24T13:56:03;6.53;;;3.33;;
52112;SDS011;38109;49.488;31.988;2023-04-24T14:01:50;3.80;;;3.00;;
52112;SDS011;38109;49.488;31.988;2023-04-24T14:04:16;3.63;;;2.85;;
52112;SDS011;38109;49.488;31.988;2023-04-24T14:06:41;3.03;;;2.72;;
52112;SDS011;38109;49.488;31.988;2023-04-24T14:09:08;3.10;;;2.80;;
52112;SDS011;38109;49.488;31.988;2023-04-24T14:11:35;3.25;;;2.92;;
52112;SDS011;38109;49.488;31.988;2023-04-24T14:14:01;3.45;;;2.92;;
52112;SDS011;38109;49.488;31.988;2023-04-24T14:19:49;5.22;;;2.80;;
52112;SDS011;38109;49.488;31.988;2023-04-24T14:22:17;3.40;;;3.05;;
52112;SDS011;38109;49.488;31.988;2023-04-24T14:24:42;6.10;;;3.17;;
52112;SDS011;38109;49.488;31.988;2023-04-24T14:27:09;4.13;;;3.35;;
52112;SDS011;38109;49.488;31.988;2023-04-24T14:29:35;3.90;;;3.20;;
52112;SDS011;38109;49.488;31.988;2023-04-24T14:32:02;3.10;;;2.80;;
52112;SDS011;38109;49.488;31.988;2023-04-24T14:34:28;2.60;;;2.40;;
52112;SDS011;38109;49.488;31.988;2023-04-24T14:36:54;3.03;;;2.75;;
52112;SDS011;38109;49.488;31.988;2023-04-24T14:39:20;3.55;;;2.70;;
52112;SDS011;38109;49.488;31.988;2023-04-24T14:41:46;3.35;;;2.60;;
52112;SDS011;38109;49.488;31.988;2023-04-24T14:44:11;3.92;;;3.20;;
52112;SDS011;38109;49.488;31.988;2023-04-24T14:46:37;3.78;;;3.08;;
52112;SDS011;38109;49.488;31.988;2023-04-24T14:49:03;3.10;;;2.80;;
52112;SDS011;38109;49.488;31.988;2023-04-24T14:51:28;4.75;;;2.80;;
52112;SDS011;38109;49.488;31.988;2023-04-24T14:53:55;3.90;;;2.92;;
52112;SDS011;38109;49.488;31.988;2023-04-24T14:56:22;3.03;;;2.30;;
52112;SDS011;38109;49.488;31.988;2023-04-24T14:58:48;2.80;;;2.50;;
52112;SDS011;38109;49.488;31.988;2023-04-24T15:01:14;2.90;;;2.60;;
52112;SDS011;38109;49.488;31.988;2023-04-24T15:03:40;3.25;;;2.95;;
52112;SDS011;38109;49.488;31.988;2023-04-24T15:06:14;2.88;;;2.50;;
52112;SDS011;38109;49.488;31.988;2023-04-24T15:08:40;3.40;;;2.70;;
52112;SDS011;38109;49.488;31.988;2023-04-24T15:11:06;2.95;;;2.70;;
52112;SDS011;38109;49.488;31.988;2023-04-24T15:13:32;3.00;;;2.70;;
52112;SDS011;38109;49.488;31.988;2023-04-24T15:15:57;2.58;;;2.38;;
52112;SDS011;38109;49.488;31.988;2023-04-24T15:18:23;2.50;;;2.30;;
52112;SDS011;38109;49.488;31.988;2023-04-24T15:20:48;2.78;;;2.30;;
52112;SDS011;38109;49.488;31.988;2023-04-24T15:29:08;3.30;;;2.47;;
52112;SDS011;38109;49.488;31.988;2023-04-24T15:31:34;3.47;;;2.60;;
52112;SDS011;38109;49.488;31.988;2023-04-24T15:34:04;2.75;;;2.13;;
52112;SDS011;38109;49.488;31.988;2023-04-24T15:36:30;3.40;;;2.40;;
52112;SDS011;38109;49.488;31.988;2023-04-24T15:38:56;2.50;;;2.30;;
52112;SDS011;38109;49.488;31.988;2023-04-24T15:41:21;2.70;;;2.50;;
52112;SDS011;38109;49.488;31.988;2023-04-24T15:43:47;3.15;;;2.30;;
52112;SDS011;38109;49.488;31.988;2023-04-24T15:46:13;2.30;;;2.10;;
52112;SDS011;38109;49.488;31.988;2023-04-24T15:48:38;41.10;;;19.73;;
52112;SDS011;38109;49.488;31.988;2023-04-24T15:51:22;30.45;;;14.82;;
52112;SDS011;38109;49.488;31.988;2023-04-24T15:57:21;27.60;;;14.88;;
52112;SDS011;38109;49.488;31.988;2023-04-24T16:39:06;3.40;;;3.10;;
52112;SDS011;38109;49.488;31.988;2023-04-24T16:51:31;5.47;;;4.30;;
52112;SDS011;38109;49.488;31.988;2023-04-24T16:53:57;5.78;;;4.75;;
52112;SDS011;38109;49.488;31.988;2023-04-24T16:56:23;5.03;;;4.45;;
52112;SDS011;38109;49.488;31.988;2023-04-24T16:58:49;5.75;;;4.93;;
52112;SDS011;38109;49.488;31.988;2023-04-24T17:01:16;21.08;;;10.68;;
52112;SDS011;38109;49.488;31.988;2023-04-24T17:03:41;20.75;;;11.45;;
52112;SDS011;38109;49.488;31.988;2023-04-24T17:06:07;17.77;;;10.63;;
52112;SDS011;38109;49.488;31.988;2023-04-24T17:08:32;18.20;;;10.80;;
52112;SDS011;38109;49.488;31.988;2023-04-24T17:10:58;17.38;;;9.88;;
52112;SDS011;38109;49.488;31.988;2023-04-24T17:13:24;10.60;;;7.05;;
52112;SDS011;38109;49.488;31.988;2023-04-24T17:15:50;13.02;;;7.25;;
52112;SDS011;38109;49.488;31.988;2023-04-24T17:18:15;11.02;;;6.53;;
52112;SDS011;38109;49.488;31.988;2023-04-24T17:20:42;9.68;;;5.95;;
52112;SDS011;38109;49.488;31.988;2023-04-24T17:23:08;11.70;;;5.97;;
52112;SDS011;38109;49.488;31.988;2023-04-24T17:25:36;9.40;;;5.82;;
52112;SDS011;38109;49.488;31.988;2023-04-24T17:28:01;10.38;;;5.40;;
52112;SDS011;38109;49.488;31.988;2023-04-24T17:30:29;10.27;;;5.13;;